AFL719 ULLI-ULMM
Flight info
| Callsign | AFL719 |
|---|---|
| Flight time | 1h 33m |
| Altitude | 33000 |
| Route | PETAP1A PETAP T457 LULOR/K0835F340 T693 ASGOR ASGOR1H |
| Aircraft | A21N/M-SDE3FGHIRWY/LB1 |
Departure
| Time | 2026-04-21 09:40 |
|---|---|
| Airport | Pulkovo Airport (ULLI) |
Arrival
| Time | 2026-04-21 11:13 |
|---|---|
| Airport | Emperor Nicholas II Murmansk Airport (ULMM) |
| Time | Latitude | Longitude | Altitude | Speed | Heading |
|---|---|---|---|---|---|
| 2026-04-21 09:19 | 59.79870 | 30.26736 | 87 ft | 0 kts | 106° |
| 2026-04-21 09:30 | 59.79873 | 30.26714 | 87 ft | 2 kts | 106° |
| 2026-04-21 09:31 | 59.79877 | 30.26685 | 87 ft | 2 kts | 106° |
| 2026-04-21 09:31 | 59.79881 | 30.26656 | 87 ft | 1 kts | 106° |
| 2026-04-21 09:31 | 59.79884 | 30.26639 | 87 ft | 1 kts | 90° |
| 2026-04-21 09:31 | 59.79879 | 30.26612 | 87 ft | 2 kts | 40° |
| 2026-04-21 09:32 | 59.79871 | 30.26603 | 87 ft | 1 kts | 14° |
| 2026-04-21 09:32 | 59.79865 | 30.26600 | 87 ft | 0 kts | 16° |
| 2026-04-21 09:36 | 59.79874 | 30.26605 | 87 ft | 3 kts | 18° |
| 2026-04-21 09:37 | 59.79923 | 30.26638 | 87 ft | 12 kts | 17° |
| 2026-04-21 09:37 | 59.80012 | 30.26691 | 87 ft | 13 kts | 16° |
| 2026-04-21 09:37 | 59.80108 | 30.26749 | 85 ft | 15 kts | 17° |
| 2026-04-21 09:37 | 59.80213 | 30.26810 | 82 ft | 16 kts | 16° |
| 2026-04-21 09:38 | 59.80327 | 30.26877 | 80 ft | 17 kts | 15° |
| 2026-04-21 09:38 | 59.80368 | 30.27051 | 78 ft | 17 kts | 107° |
| 2026-04-21 09:38 | 59.80029 | 30.29331 | 73 ft | 17 kts | 106° |
| 2026-04-21 09:38 | 59.79949 | 30.30054 | 76 ft | 15 kts | 57° |
| 2026-04-21 09:39 | 59.80029 | 30.30220 | 74 ft | 17 kts | 46° |
| 2026-04-21 09:39 | 59.80124 | 30.30245 | 74 ft | 15 kts | 296° |
| 2026-04-21 09:39 | 59.80154 | 30.30036 | 74 ft | 15 kts | 286° |
| 2026-04-21 09:39 | 59.80236 | 30.29489 | 70 ft | 76 kts | 286° |
| 2026-04-21 09:40 | 59.80448 | 30.28062 | 72 ft | 138 kts | 286° |
| 2026-04-21 09:40 | 59.80753 | 30.25917 | 210 ft | 175 kts | 288° |
| 2026-04-21 09:40 | 59.81113 | 30.23621 | 792 ft | 180 kts | 290° |
| 2026-04-21 09:40 | 59.81506 | 30.21244 | 1447 ft | 184 kts | 291° |
| 2026-04-21 09:41 | 59.81903 | 30.18833 | 2100 ft | 186 kts | 291° |
| 2026-04-21 09:41 | 59.82276 | 30.16407 | 2736 ft | 188 kts | 290° |
| 2026-04-21 09:41 | 59.82630 | 30.13944 | 3363 ft | 190 kts | 289° |
| 2026-04-21 09:41 | 59.82986 | 30.11324 | 3797 ft | 203 kts | 289° |
| 2026-04-21 09:42 | 59.83376 | 30.08502 | 4183 ft | 220 kts | 289° |
| 2026-04-21 09:42 | 59.83808 | 30.05467 | 4499 ft | 242 kts | 289° |
| 2026-04-21 09:42 | 59.84295 | 30.02107 | 4986 ft | 259 kts | 290° |
| 2026-04-21 09:42 | 59.84866 | 29.98696 | 5645 ft | 266 kts | 297° |
| 2026-04-21 09:43 | 59.85712 | 29.95422 | 6478 ft | 266 kts | 306° |
| 2026-04-21 09:43 | 59.86705 | 29.92359 | 7235 ft | 268 kts | 308° |
| 2026-04-21 09:43 | 59.87748 | 29.89269 | 8005 ft | 271 kts | 308° |
| 2026-04-21 09:43 | 59.88802 | 29.86146 | 8792 ft | 275 kts | 308° |
| 2026-04-21 09:44 | 59.89858 | 29.83003 | 9521 ft | 278 kts | 308° |
| 2026-04-21 09:44 | 59.90932 | 29.79812 | 10274 ft | 280 kts | 311° |
| 2026-04-21 09:44 | 59.92319 | 29.77132 | 10798 ft | 282 kts | 333° |
| 2026-04-21 09:44 | 59.94193 | 29.75810 | 11133 ft | 291 kts | 355° |
| 2026-04-21 09:45 | 59.96269 | 29.75872 | 11450 ft | 305 kts | 6° |
| 2026-04-21 09:45 | 59.98418 | 29.76158 | 11767 ft | 321 kts | 5° |
| 2026-04-21 09:45 | 60.00711 | 29.76440 | 12066 ft | 335 kts | 5° |
| 2026-04-21 09:45 | 60.03031 | 29.76713 | 12131 ft | 338 kts | 5° |
| 2026-04-21 09:46 | 60.05384 | 29.76983 | 12134 ft | 338 kts | 5° |
| 2026-04-21 09:46 | 60.07709 | 29.77248 | 12147 ft | 338 kts | 5° |
| 2026-04-21 09:46 | 60.10073 | 29.77519 | 12155 ft | 338 kts | 5° |
| 2026-04-21 09:46 | 60.12421 | 29.77790 | 12148 ft | 338 kts | 5° |
| 2026-04-21 09:47 | 60.14755 | 29.78059 | 12136 ft | 339 kts | 5° |
| 2026-04-21 09:47 | 60.17104 | 29.78331 | 12400 ft | 345 kts | 5° |
| 2026-04-21 09:47 | 60.19503 | 29.78606 | 13170 ft | 345 kts | 5° |
| 2026-04-21 09:47 | 60.21892 | 29.78878 | 13900 ft | 346 kts | 5° |
| 2026-04-21 09:48 | 60.24266 | 29.79150 | 14519 ft | 349 kts | 5° |
| 2026-04-21 09:48 | 60.26716 | 29.79432 | 15125 ft | 352 kts | 5° |
| 2026-04-21 09:48 | 60.29155 | 29.79713 | 15739 ft | 355 kts | 5° |
| 2026-04-21 09:48 | 60.31587 | 29.80075 | 16341 ft | 356 kts | 8° |
| 2026-04-21 09:49 | 60.34029 | 29.80969 | 16956 ft | 358 kts | 15° |
| 2026-04-21 09:49 | 60.36414 | 29.82441 | 17524 ft | 360 kts | 21° |
| 2026-04-21 09:49 | 60.38725 | 29.84289 | 18073 ft | 362 kts | 22° |
| 2026-04-21 09:49 | 60.41053 | 29.86241 | 18648 ft | 364 kts | 23° |
| 2026-04-21 09:50 | 60.43357 | 29.88188 | 19184 ft | 366 kts | 23° |
| 2026-04-21 09:50 | 60.44143 | 29.88853 | 19365 ft | 367 kts | 23° |
| 2026-04-21 09:50 | 60.50459 | 29.94201 | 20749 ft | 373 kts | 23° |
| 2026-04-21 09:51 | 60.52834 | 29.96214 | 21227 ft | 375 kts | 23° |
| 2026-04-21 09:51 | 60.55229 | 29.98248 | 21682 ft | 378 kts | 23° |
| 2026-04-21 09:51 | 60.57661 | 30.00315 | 22153 ft | 380 kts | 23° |
| 2026-04-21 09:51 | 60.60095 | 30.02387 | 22596 ft | 382 kts | 23° |
| 2026-04-21 09:52 | 60.62543 | 30.04475 | 23042 ft | 384 kts | 23° |
| 2026-04-21 09:52 | 60.64990 | 30.06564 | 23483 ft | 386 kts | 23° |
| 2026-04-21 09:52 | 60.67483 | 30.08696 | 23894 ft | 389 kts | 23° |
| 2026-04-21 09:52 | 60.69972 | 30.10828 | 24283 ft | 391 kts | 23° |
| 2026-04-21 09:53 | 60.72457 | 30.12958 | 24658 ft | 393 kts | 23° |
| 2026-04-21 09:53 | 60.74969 | 30.15117 | 25041 ft | 395 kts | 23° |
| 2026-04-21 09:53 | 60.77492 | 30.17289 | 25407 ft | 397 kts | 23° |
| 2026-04-21 09:53 | 60.80055 | 30.19499 | 25761 ft | 399 kts | 23° |
| 2026-04-21 09:54 | 60.82590 | 30.21690 | 26069 ft | 401 kts | 23° |
| 2026-04-21 09:54 | 60.85141 | 30.23897 | 26361 ft | 404 kts | 23° |
| 2026-04-21 09:54 | 60.87750 | 30.26158 | 26665 ft | 405 kts | 23° |
| 2026-04-21 09:54 | 60.90330 | 30.28399 | 26982 ft | 407 kts | 23° |
| 2026-04-21 09:55 | 60.92926 | 30.30658 | 27370 ft | 406 kts | 23° |
| 2026-04-21 09:55 | 60.95495 | 30.32896 | 27821 ft | 404 kts | 23° |
| 2026-04-21 09:55 | 60.98064 | 30.35136 | 28255 ft | 401 kts | 23° |
| 2026-04-21 09:55 | 61.00621 | 30.37369 | 28647 ft | 400 kts | 23° |
| 2026-04-21 09:56 | 61.03148 | 30.39583 | 29012 ft | 399 kts | 23° |
| 2026-04-21 09:56 | 61.05722 | 30.41844 | 29376 ft | 398 kts | 23° |
| 2026-04-21 09:56 | 61.08240 | 30.44057 | 29722 ft | 398 kts | 23° |
| 2026-04-21 09:56 | 61.10772 | 30.46287 | 30080 ft | 396 kts | 23° |
| 2026-04-21 09:57 | 61.13282 | 30.48501 | 30447 ft | 395 kts | 23° |
| 2026-04-21 09:57 | 61.15802 | 30.50727 | 30815 ft | 394 kts | 23° |
| 2026-04-21 09:57 | 61.18288 | 30.52925 | 31176 ft | 392 kts | 23° |
| 2026-04-21 09:57 | 61.20805 | 30.55156 | 31490 ft | 391 kts | 23° |
| 2026-04-21 09:58 | 61.23279 | 30.57353 | 31701 ft | 392 kts | 23° |
| 2026-04-21 09:58 | 61.25781 | 30.59578 | 31876 ft | 394 kts | 23° |
| 2026-04-21 09:58 | 61.28309 | 30.61828 | 32047 ft | 396 kts | 23° |
| 2026-04-21 09:58 | 61.30815 | 30.64060 | 32229 ft | 397 kts | 23° |
| 2026-04-21 09:59 | 61.33346 | 30.66318 | 32430 ft | 397 kts | 24° |
| 2026-04-21 09:59 | 61.35887 | 30.68588 | 32609 ft | 398 kts | 24° |
| 2026-04-21 09:59 | 61.38414 | 30.70849 | 32766 ft | 399 kts | 24° |
| 2026-04-21 09:59 | 61.40980 | 30.73148 | 32902 ft | 400 kts | 24° |
| 2026-04-21 10:00 | 61.43507 | 30.75415 | 33035 ft | 401 kts | 24° |
| 2026-04-21 10:00 | 61.46056 | 30.77707 | 33123 ft | 403 kts | 24° |
| 2026-04-21 10:00 | 61.51210 | 30.82354 | 33121 ft | 403 kts | 24° |
| 2026-04-21 10:01 | 61.56315 | 30.86972 | 33123 ft | 404 kts | 24° |
| 2026-04-21 10:01 | 61.61441 | 30.91626 | 33120 ft | 404 kts | 24° |
| 2026-04-21 10:02 | 61.69159 | 30.98667 | 33126 ft | 404 kts | 24° |
| 2026-04-21 10:03 | 61.74295 | 31.03374 | 33115 ft | 404 kts | 24° |
| 2026-04-21 10:03 | 61.79414 | 31.08082 | 33120 ft | 404 kts | 24° |
| 2026-04-21 10:04 | 61.84522 | 31.12795 | 33121 ft | 404 kts | 24° |
| 2026-04-21 10:04 | 61.89663 | 31.17559 | 33120 ft | 404 kts | 24° |
| 2026-04-21 10:05 | 61.94779 | 31.22317 | 33119 ft | 404 kts | 24° |
| 2026-04-21 10:05 | 61.99912 | 31.27106 | 33112 ft | 403 kts | 24° |
| 2026-04-21 10:06 | 62.05030 | 31.31900 | 33111 ft | 404 kts | 24° |
| 2026-04-21 10:06 | 62.10117 | 31.36683 | 33113 ft | 404 kts | 24° |
| 2026-04-21 10:07 | 62.15273 | 31.41549 | 33114 ft | 404 kts | 24° |
| 2026-04-21 10:07 | 62.20370 | 31.46374 | 33115 ft | 403 kts | 24° |
| 2026-04-21 10:08 | 62.25500 | 31.51253 | 33115 ft | 404 kts | 24° |
| 2026-04-21 10:08 | 62.30606 | 31.56123 | 33113 ft | 404 kts | 24° |
| 2026-04-21 10:09 | 62.35696 | 31.60999 | 33111 ft | 404 kts | 24° |
| 2026-04-21 10:09 | 62.40801 | 31.65907 | 33114 ft | 404 kts | 24° |
| 2026-04-21 10:10 | 62.45927 | 31.70853 | 33105 ft | 404 kts | 24° |
| 2026-04-21 10:10 | 62.51022 | 31.75787 | 33110 ft | 404 kts | 24° |
| 2026-04-21 10:11 | 62.56138 | 31.80758 | 33111 ft | 404 kts | 24° |
| 2026-04-21 10:11 | 62.61229 | 31.85727 | 33272 ft | 405 kts | 24° |
| 2026-04-21 10:11 | 62.63786 | 31.88229 | 33478 ft | 404 kts | 24° |
| 2026-04-21 10:12 | 62.66354 | 31.90691 | 33640 ft | 403 kts | 22° |
| 2026-04-21 10:12 | 62.68963 | 31.92822 | 33773 ft | 404 kts | 19° |
| 2026-04-21 10:12 | 62.71655 | 31.94602 | 33901 ft | 405 kts | 15° |
| 2026-04-21 10:12 | 62.74361 | 31.95958 | 34018 ft | 406 kts | 11° |
| 2026-04-21 10:13 | 62.77168 | 31.96795 | 34096 ft | 407 kts | 8° |
| 2026-04-21 10:13 | 62.82785 | 31.97518 | 34108 ft | 409 kts | 2° |
| 2026-04-21 10:14 | 62.88473 | 31.97383 | 34121 ft | 409 kts | 1° |
| 2026-04-21 10:14 | 62.94109 | 31.97156 | 34118 ft | 409 kts | 1° |
| 2026-04-21 10:15 | 62.99764 | 31.96922 | 34124 ft | 409 kts | 1° |
| 2026-04-21 10:15 | 63.05441 | 31.96682 | 34110 ft | 409 kts | 1° |
| 2026-04-21 10:16 | 63.11124 | 31.96438 | 34120 ft | 409 kts | 1° |
| 2026-04-21 10:16 | 63.16806 | 31.96193 | 34124 ft | 409 kts | 1° |
| 2026-04-21 10:17 | 63.22440 | 31.95951 | 34122 ft | 409 kts | 1° |
| 2026-04-21 10:17 | 63.28125 | 31.95705 | 34111 ft | 409 kts | 1° |
| 2026-04-21 10:18 | 63.33786 | 31.95571 | 34120 ft | 409 kts | 3° |
| 2026-04-21 10:18 | 63.39420 | 31.95797 | 34112 ft | 409 kts | 3° |
| 2026-04-21 10:19 | 63.45108 | 31.96075 | 34104 ft | 408 kts | 4° |
| 2026-04-21 10:19 | 63.50730 | 31.96366 | 34115 ft | 408 kts | 4° |
| 2026-04-21 10:20 | 63.56377 | 31.96658 | 34099 ft | 408 kts | 4° |
| 2026-04-21 10:20 | 63.62009 | 31.96945 | 34109 ft | 409 kts | 4° |
| 2026-04-21 10:21 | 63.67674 | 31.97233 | 34109 ft | 409 kts | 4° |
| 2026-04-21 10:21 | 63.73325 | 31.97520 | 34107 ft | 409 kts | 4° |
| 2026-04-21 10:22 | 63.79019 | 31.97808 | 34096 ft | 410 kts | 4° |
| 2026-04-21 10:22 | 63.84666 | 31.98096 | 34098 ft | 410 kts | 4° |
| 2026-04-21 10:23 | 63.90375 | 31.98390 | 34103 ft | 411 kts | 4° |
| 2026-04-21 10:23 | 63.96059 | 31.98682 | 34102 ft | 410 kts | 4° |
| 2026-04-21 10:24 | 64.01710 | 31.98974 | 34108 ft | 410 kts | 4° |
| 2026-04-21 10:24 | 64.07407 | 31.99269 | 34114 ft | 410 kts | 4° |
| 2026-04-21 10:25 | 64.13068 | 31.99569 | 34105 ft | 410 kts | 4° |
| 2026-04-21 10:25 | 64.18766 | 31.99869 | 34096 ft | 410 kts | 4° |
| 2026-04-21 10:26 | 64.24441 | 32.00164 | 34109 ft | 410 kts | 4° |
| 2026-04-21 10:26 | 64.30103 | 32.00462 | 34092 ft | 409 kts | 4° |
| 2026-04-21 10:27 | 64.35750 | 32.00760 | 34100 ft | 409 kts | 4° |
| 2026-04-21 10:27 | 64.41393 | 32.01061 | 34098 ft | 409 kts | 4° |
| 2026-04-21 10:28 | 64.47087 | 32.01365 | 34090 ft | 408 kts | 4° |
| 2026-04-21 10:28 | 64.52724 | 32.01667 | 34092 ft | 408 kts | 4° |
| 2026-04-21 10:29 | 64.58362 | 32.01973 | 34087 ft | 408 kts | 4° |
| 2026-04-21 10:29 | 64.64012 | 32.02276 | 34084 ft | 408 kts | 4° |
| 2026-04-21 10:30 | 64.69640 | 32.02580 | 34079 ft | 408 kts | 4° |
| 2026-04-21 10:30 | 64.75271 | 32.02885 | 34078 ft | 407 kts | 4° |
| 2026-04-21 10:31 | 64.80936 | 32.03193 | 34069 ft | 407 kts | 4° |
| 2026-04-21 10:31 | 64.86536 | 32.03497 | 34073 ft | 407 kts | 4° |
| 2026-04-21 10:32 | 64.92159 | 32.03809 | 34066 ft | 407 kts | 4° |
| 2026-04-21 10:32 | 64.97802 | 32.04134 | 34067 ft | 407 kts | 3° |
| 2026-04-21 10:33 | 65.03421 | 32.04449 | 34061 ft | 406 kts | 3° |
| 2026-04-21 10:33 | 65.09044 | 32.04767 | 34057 ft | 406 kts | 3° |
| 2026-04-21 10:34 | 65.14676 | 32.05084 | 34060 ft | 406 kts | 3° |
| 2026-04-21 10:34 | 65.20290 | 32.05403 | 34058 ft | 406 kts | 3° |
| 2026-04-21 10:35 | 65.25881 | 32.05722 | 34056 ft | 406 kts | 3° |
| 2026-04-21 10:35 | 65.31527 | 32.06044 | 34058 ft | 406 kts | 3° |
| 2026-04-21 10:36 | 65.37155 | 32.06364 | 34055 ft | 406 kts | 3° |
| 2026-04-21 10:36 | 65.42758 | 32.06685 | 34056 ft | 405 kts | 3° |
| 2026-04-21 10:37 | 65.48357 | 32.07007 | 34057 ft | 405 kts | 3° |
| 2026-04-21 10:37 | 65.53972 | 32.07330 | 34055 ft | 406 kts | 3° |
| 2026-04-21 10:38 | 65.59576 | 32.07629 | 34056 ft | 406 kts | 3° |
| 2026-04-21 10:38 | 65.65208 | 32.07895 | 34060 ft | 406 kts | 3° |
| 2026-04-21 10:39 | 65.70824 | 32.08156 | 34056 ft | 405 kts | 3° |
| 2026-04-21 10:39 | 65.76408 | 32.08421 | 34057 ft | 406 kts | 3° |
| 2026-04-21 10:40 | 65.82016 | 32.08687 | 34055 ft | 405 kts | 3° |
| 2026-04-21 10:40 | 65.87631 | 32.08954 | 34055 ft | 405 kts | 2° |
| 2026-04-21 10:41 | 65.93244 | 32.09226 | 34055 ft | 405 kts | 2° |
| 2026-04-21 10:41 | 65.98881 | 32.09498 | 34056 ft | 405 kts | 2° |
| 2026-04-21 10:42 | 66.04469 | 32.09764 | 34055 ft | 405 kts | 2° |
| 2026-04-21 10:42 | 66.10073 | 32.10037 | 34059 ft | 405 kts | 2° |
| 2026-04-21 10:43 | 66.15675 | 32.10308 | 34058 ft | 405 kts | 2° |
| 2026-04-21 10:43 | 66.21271 | 32.10580 | 34054 ft | 404 kts | 2° |
| 2026-04-21 10:44 | 66.26836 | 32.10851 | 34053 ft | 404 kts | 2° |
| 2026-04-21 10:44 | 66.32440 | 32.11126 | 34060 ft | 404 kts | 2° |
| 2026-04-21 10:45 | 66.38019 | 32.11803 | 34065 ft | 403 kts | 6° |
| 2026-04-21 10:45 | 66.43505 | 32.13819 | 34060 ft | 402 kts | 11° |
| 2026-04-21 10:46 | 66.48944 | 32.16947 | 34060 ft | 402 kts | 13° |
| 2026-04-21 10:46 | 66.54363 | 32.20274 | 34063 ft | 402 kts | 13° |
| 2026-04-21 10:47 | 66.59755 | 32.23600 | 34065 ft | 402 kts | 13° |
| 2026-04-21 10:47 | 66.65166 | 32.26945 | 34065 ft | 402 kts | 13° |
| 2026-04-21 10:48 | 66.70568 | 32.30301 | 34066 ft | 402 kts | 13° |
| 2026-04-21 10:48 | 66.75968 | 32.33668 | 34062 ft | 401 kts | 13° |
| 2026-04-21 10:49 | 66.81368 | 32.37043 | 34055 ft | 402 kts | 13° |
| 2026-04-21 10:49 | 66.86740 | 32.40428 | 34052 ft | 402 kts | 13° |
| 2026-04-21 10:50 | 66.91257 | 32.43282 | 34048 ft | 402 kts | 13° |
| 2026-04-21 10:50 | 66.97535 | 32.47274 | 34045 ft | 401 kts | 12° |
| 2026-04-21 10:51 | 67.02926 | 32.50715 | 34043 ft | 401 kts | 12° |
| 2026-04-21 10:51 | 67.08339 | 32.54183 | 33564 ft | 405 kts | 12° |
| 2026-04-21 10:51 | 67.11071 | 32.55941 | 32935 ft | 404 kts | 12° |
| 2026-04-21 10:52 | 67.13744 | 32.57664 | 32335 ft | 401 kts | 12° |
| 2026-04-21 10:52 | 67.16417 | 32.59391 | 31735 ft | 398 kts | 12° |
| 2026-04-21 10:52 | 67.19104 | 32.61132 | 31133 ft | 396 kts | 12° |
| 2026-04-21 10:52 | 67.21730 | 32.62838 | 30546 ft | 397 kts | 12° |
| 2026-04-21 10:53 | 67.24417 | 32.64582 | 29920 ft | 399 kts | 12° |
| 2026-04-21 10:53 | 67.27093 | 32.66324 | 29268 ft | 399 kts | 12° |
| 2026-04-21 10:53 | 67.29763 | 32.68066 | 28591 ft | 399 kts | 12° |
| 2026-04-21 10:53 | 67.32436 | 32.69817 | 27898 ft | 399 kts | 12° |
| 2026-04-21 10:54 | 67.35111 | 32.71572 | 27187 ft | 400 kts | 12° |
| 2026-04-21 10:54 | 67.37774 | 32.73325 | 26465 ft | 401 kts | 12° |
| 2026-04-21 10:54 | 67.40449 | 32.75088 | 25976 ft | 401 kts | 12° |
| 2026-04-21 10:54 | 67.43169 | 32.76700 | 25481 ft | 397 kts | 8° |
| 2026-04-21 10:55 | 67.45853 | 32.77733 | 24996 ft | 393 kts | 4° |
| 2026-04-21 10:55 | 67.48544 | 32.78211 | 24519 ft | 388 kts | 0° |
| 2026-04-21 10:55 | 67.51200 | 32.78252 | 24022 ft | 385 kts | 358° |
| 2026-04-21 10:55 | 67.53866 | 32.78167 | 23524 ft | 381 kts | 358° |
| 2026-04-21 10:56 | 67.56490 | 32.78056 | 23026 ft | 378 kts | 358° |
| 2026-04-21 10:56 | 67.59101 | 32.77948 | 22524 ft | 376 kts | 358° |
| 2026-04-21 10:56 | 67.61680 | 32.77845 | 22032 ft | 373 kts | 357° |
| 2026-04-21 10:56 | 67.64254 | 32.77741 | 21543 ft | 370 kts | 357° |
| 2026-04-21 10:57 | 67.66787 | 32.77639 | 21057 ft | 367 kts | 358° |
| 2026-04-21 10:57 | 67.69304 | 32.77541 | 20576 ft | 364 kts | 357° |
| 2026-04-21 10:57 | 67.71807 | 32.77443 | 20106 ft | 361 kts | 357° |
| 2026-04-21 10:57 | 67.74321 | 32.77344 | 19627 ft | 358 kts | 357° |
| 2026-04-21 10:58 | 67.76776 | 32.77248 | 19151 ft | 356 kts | 358° |
| 2026-04-21 10:58 | 67.79231 | 32.77153 | 18687 ft | 353 kts | 357° |
| 2026-04-21 10:58 | 67.81651 | 32.77058 | 18219 ft | 350 kts | 357° |
| 2026-04-21 10:58 | 67.84070 | 32.76961 | 17735 ft | 348 kts | 357° |
| 2026-04-21 10:59 | 67.86481 | 32.76865 | 17271 ft | 345 kts | 357° |
| 2026-04-21 10:59 | 67.88834 | 32.76770 | 16797 ft | 344 kts | 357° |
| 2026-04-21 10:59 | 67.91207 | 32.76678 | 16306 ft | 342 kts | 357° |
| 2026-04-21 10:59 | 67.93593 | 32.76584 | 15816 ft | 340 kts | 357° |
| 2026-04-21 11:00 | 67.95943 | 32.76490 | 15348 ft | 337 kts | 357° |
| 2026-04-21 11:00 | 67.98264 | 32.76401 | 14882 ft | 335 kts | 357° |
| 2026-04-21 11:00 | 68.00618 | 32.76351 | 14361 ft | 334 kts | 357° |
| 2026-04-21 11:00 | 68.02927 | 32.76321 | 13902 ft | 332 kts | 357° |
| 2026-04-21 11:01 | 68.05199 | 32.76294 | 13440 ft | 330 kts | 357° |
| 2026-04-21 11:01 | 68.07467 | 32.76263 | 12963 ft | 328 kts | 357° |
| 2026-04-21 11:01 | 68.09750 | 32.76228 | 12470 ft | 327 kts | 357° |
| 2026-04-21 11:02 | 68.14263 | 32.76160 | 11503 ft | 325 kts | 357° |
| 2026-04-21 11:02 | 68.16493 | 32.76127 | 11013 ft | 324 kts | 357° |
| 2026-04-21 11:02 | 68.18693 | 32.76094 | 10814 ft | 312 kts | 357° |
| 2026-04-21 11:02 | 68.20827 | 32.76067 | 10656 ft | 300 kts | 357° |
| 2026-04-21 11:03 | 68.22873 | 32.76037 | 10438 ft | 291 kts | 357° |
| 2026-04-21 11:03 | 68.24837 | 32.76009 | 10321 ft | 279 kts | 357° |
| 2026-04-21 11:03 | 68.26734 | 32.75982 | 10190 ft | 267 kts | 357° |
| 2026-04-21 11:03 | 68.28536 | 32.75956 | 10065 ft | 256 kts | 357° |
| 2026-04-21 11:04 | 68.30289 | 32.75928 | 9818 ft | 251 kts | 356° |
| 2026-04-21 11:04 | 68.32010 | 32.75896 | 9449 ft | 250 kts | 356° |
| 2026-04-21 11:04 | 68.33754 | 32.75864 | 9095 ft | 249 kts | 356° |
| 2026-04-21 11:04 | 68.35465 | 32.75835 | 8748 ft | 247 kts | 356° |
| 2026-04-21 11:05 | 68.37176 | 32.75806 | 8405 ft | 246 kts | 356° |
| 2026-04-21 11:05 | 68.38874 | 32.75777 | 8071 ft | 244 kts | 356° |
| 2026-04-21 11:05 | 68.40562 | 32.75751 | 7741 ft | 243 kts | 356° |
| 2026-04-21 11:05 | 68.42234 | 32.75738 | 7410 ft | 241 kts | 358° |
| 2026-04-21 11:06 | 68.43887 | 32.75879 | 7097 ft | 240 kts | 359° |
| 2026-04-21 11:06 | 68.45534 | 32.76056 | 6783 ft | 238 kts | 359° |
| 2026-04-21 11:06 | 68.47177 | 32.76237 | 6469 ft | 236 kts | 359° |
| 2026-04-21 11:06 | 68.48823 | 32.76417 | 6151 ft | 235 kts | 359° |
| 2026-04-21 11:07 | 68.50433 | 32.76595 | 5980 ft | 228 kts | 359° |
| 2026-04-21 11:07 | 68.51993 | 32.76811 | 5954 ft | 229 kts | 1° |
| 2026-04-21 11:07 | 68.53597 | 32.77183 | 5584 ft | 231 kts | 1° |
| 2026-04-21 11:07 | 68.55186 | 32.77578 | 5225 ft | 230 kts | 1° |
| 2026-04-21 11:08 | 68.56760 | 32.77973 | 4877 ft | 229 kts | 2° |
| 2026-04-21 11:08 | 68.58303 | 32.79046 | 4475 ft | 238 kts | 27° |
| 2026-04-21 11:08 | 68.59444 | 32.82364 | 4133 ft | 246 kts | 52° |
| 2026-04-21 11:08 | 68.60355 | 32.86350 | 3807 ft | 245 kts | 52° |
| 2026-04-21 11:09 | 68.61278 | 32.90242 | 3464 ft | 244 kts | 51° |
| 2026-04-21 11:09 | 68.62202 | 32.94085 | 3133 ft | 243 kts | 51° |
| 2026-04-21 11:09 | 68.63193 | 32.97790 | 2783 ft | 238 kts | 39° |
| 2026-04-21 11:09 | 68.64608 | 32.99628 | 2408 ft | 224 kts | 357° |
| 2026-04-21 11:10 | 68.65987 | 32.98455 | 2360 ft | 203 kts | 323° |
| 2026-04-21 11:10 | 68.67078 | 32.96091 | 2447 ft | 196 kts | 319° |
| 2026-04-21 11:10 | 68.68106 | 32.93881 | 2423 ft | 180 kts | 321° |
| 2026-04-21 11:10 | 68.69080 | 32.91991 | 2230 ft | 162 kts | 323° |
| 2026-04-21 11:11 | 68.69965 | 32.90349 | 2003 ft | 149 kts | 323° |
| 2026-04-21 11:11 | 68.70805 | 32.88791 | 1827 ft | 144 kts | 324° |
| 2026-04-21 11:11 | 68.71626 | 32.87271 | 1620 ft | 141 kts | 324° |
| 2026-04-21 11:11 | 68.72435 | 32.85772 | 1434 ft | 141 kts | 323° |
| 2026-04-21 11:12 | 68.73247 | 32.84264 | 1239 ft | 140 kts | 324° |
| 2026-04-21 11:12 | 68.74050 | 32.82772 | 1052 ft | 140 kts | 324° |
| 2026-04-21 11:12 | 68.74863 | 32.81294 | 856 ft | 141 kts | 325° |
| 2026-04-21 11:12 | 68.75685 | 32.79799 | 671 ft | 142 kts | 324° |
| 2026-04-21 11:13 | 68.76498 | 32.78265 | 474 ft | 143 kts | 323° |
| 2026-04-21 11:13 | 68.77325 | 32.76713 | 290 ft | 144 kts | 324° |
| 2026-04-21 11:13 | 68.78041 | 32.75376 | 257 ft | 87 kts | 327° |
| 2026-04-21 11:13 | 68.78352 | 32.74801 | 257 ft | 30 kts | 324° |
| 2026-04-21 11:14 | 68.78488 | 32.74594 | 256 ft | 14 kts | 321° |
| 2026-04-21 11:14 | 68.78459 | 32.74579 | 257 ft | 10 kts | 122° |
| 2026-04-21 11:14 | 68.78407 | 32.74706 | 257 ft | 10 kts | 147° |
| 2026-04-21 11:14 | 68.78345 | 32.74819 | 257 ft | 11 kts | 147° |
| 2026-04-21 11:15 | 68.78308 | 32.74990 | 256 ft | 10 kts | 76° |
| 2026-04-21 11:15 | 68.78352 | 32.75203 | 253 ft | 14 kts | 57° |
| 2026-04-21 11:15 | 68.78410 | 32.75446 | 250 ft | 14 kts | 57° |
| 2026-04-21 11:15 | 68.78487 | 32.75496 | 250 ft | 13 kts | 327° |
| 2026-04-21 11:16 | 68.78554 | 32.75383 | 249 ft | 7 kts | 352° |
| 2026-04-21 11:16 | 68.78587 | 32.75441 | 249 ft | 0 kts | 52° |
| 2026-04-21 11:16 | 68.78588 | 32.75447 | 249 ft | 0 kts | 56° |